sensor_id;sensor_type;location;lat;lon;timestamp;temperature;humidity
18260;DHT22;9256;52.236;5.712;2023-04-15T00:02:18;7.10;99.90
18260;DHT22;9256;52.236;5.712;2023-04-15T00:04:45;7.00;99.90
18260;DHT22;9256;52.236;5.712;2023-04-15T00:07:12;7.00;99.90
18260;DHT22;9256;52.236;5.712;2023-04-15T00:09:41;7.10;99.90
18260;DHT22;9256;52.236;5.712;2023-04-15T00:12:10;7.10;99.90
18260;DHT22;9256;52.236;5.712;2023-04-15T00:14:37;7.10;99.90
18260;DHT22;9256;52.236;5.712;2023-04-15T00:17:05;7.00;99.90
18260;DHT22;9256;52.236;5.712;2023-04-15T00:19:32;7.00;99.90
18260;DHT22;9256;52.236;5.712;2023-04-15T00:21:59;7.00;99.90
18260;DHT22;9256;52.236;5.712;2023-04-15T00:24:26;6.90;99.90
18260;DHT22;9256;52.236;5.712;2023-04-15T00:26:53;6.80;99.90
18260;DHT22;9256;52.236;5.712;2023-04-15T00:29:20;6.70;99.90
18260;DHT22;9256;52.236;5.712;2023-04-15T00:31:47;6.70;99.90
18260;DHT22;9256;52.236;5.712;2023-04-15T00:34:15;6.60;99.90
18260;DHT22;9256;52.236;5.712;2023-04-15T00:36:42;6.50;99.90
18260;DHT22;9256;52.236;5.712;2023-04-15T00:39:09;6.60;99.90
18260;DHT22;9256;52.236;5.712;2023-04-15T00:41:36;6.50;99.90
18260;DHT22;9256;52.236;5.712;2023-04-15T00:44:05;6.50;99.90
18260;DHT22;9256;52.236;5.712;2023-04-15T00:46:34;6.40;99.90
18260;DHT22;9256;52.236;5.712;2023-04-15T00:49:03;6.40;99.90
18260;DHT22;9256;52.236;5.712;2023-04-15T00:51:32;6.30;99.90
18260;DHT22;9256;52.236;5.712;2023-04-15T00:54:01;6.30;99.90
18260;DHT22;9256;52.236;5.712;2023-04-15T00:56:28;6.30;99.90
18260;DHT22;9256;52.236;5.712;2023-04-15T00:58:56;6.30;99.90
18260;DHT22;9256;52.236;5.712;2023-04-15T01:01:24;6.30;99.90
18260;DHT22;9256;52.236;5.712;2023-04-15T01:03:52;6.40;99.90
18260;DHT22;9256;52.236;5.712;2023-04-15T01:06:19;6.20;99.90
18260;DHT22;9256;52.236;5.712;2023-04-15T01:08:47;6.10;99.90
18260;DHT22;9256;52.236;5.712;2023-04-15T01:11:15;6.00;99.90
18260;DHT22;9256;52.236;5.712;2023-04-15T01:13:42;6.00;99.90
18260;DHT22;9256;52.236;5.712;2023-04-15T01:16:10;6.00;99.90
18260;DHT22;9256;52.236;5.712;2023-04-15T01:18:37;6.00;99.90
18260;DHT22;9256;52.236;5.712;2023-04-15T01:21:05;5.90;99.90
18260;DHT22;9256;52.236;5.712;2023-04-15T01:23:35;6.00;99.90
18260;DHT22;9256;52.236;5.712;2023-04-15T01:26:04;6.00;99.90
18260;DHT22;9256;52.236;5.712;2023-04-15T01:28:33;5.90;99.90
18260;DHT22;9256;52.236;5.712;2023-04-15T01:31:07;5.80;99.90
18260;DHT22;9256;52.236;5.712;2023-04-15T01:33:37;5.80;99.90
18260;DHT22;9256;52.236;5.712;2023-04-15T01:36:05;5.70;99.90
18260;DHT22;9256;52.236;5.712;2023-04-15T01:38:33;5.70;99.90
18260;DHT22;9256;52.236;5.712;2023-04-15T01:41:00;5.50;99.90
18260;DHT22;9256;52.236;5.712;2023-04-15T01:43:30;5.60;99.90
18260;DHT22;9256;52.236;5.712;2023-04-15T01:45:57;5.60;99.90
18260;DHT22;9256;52.236;5.712;2023-04-15T01:48:24;5.70;99.90
18260;DHT22;9256;52.236;5.712;2023-04-15T01:50:53;5.70;99.90
18260;DHT22;9256;52.236;5.712;2023-04-15T01:53:22;5.60;99.90
18260;DHT22;9256;52.236;5.712;2023-04-15T01:55:51;5.60;99.90
18260;DHT22;9256;52.236;5.712;2023-04-15T01:58:18;5.60;99.90
18260;DHT22;9256;52.236;5.712;2023-04-15T02:00:46;5.60;99.90
18260;DHT22;9256;52.236;5.712;2023-04-15T02:03:13;5.60;99.90
18260;DHT22;9256;52.236;5.712;2023-04-15T02:05:40;5.40;99.90
18260;DHT22;9256;52.236;5.712;2023-04-15T02:08:08;5.40;99.90
18260;DHT22;9256;52.236;5.712;2023-04-15T02:10:34;5.30;99.90
18260;DHT22;9256;52.236;5.712;2023-04-15T02:13:01;5.30;99.90
18260;DHT22;9256;52.236;5.712;2023-04-15T02:15:29;5.30;99.90
18260;DHT22;9256;52.236;5.712;2023-04-15T02:17:57;5.30;99.90
18260;DHT22;9256;52.236;5.712;2023-04-15T02:20:25;5.10;99.90
18260;DHT22;9256;52.236;5.712;2023-04-15T02:22:52;5.20;99.90
18260;DHT22;9256;52.236;5.712;2023-04-15T02:25:21;5.10;99.90
18260;DHT22;9256;52.236;5.712;2023-04-15T02:27:48;5.10;99.90
18260;DHT22;9256;52.236;5.712;2023-04-15T02:30:15;5.10;99.90
18260;DHT22;9256;52.236;5.712;2023-04-15T02:32:42;5.10;99.90
18260;DHT22;9256;52.236;5.712;2023-04-15T02:35:11;5.00;99.90
18260;DHT22;9256;52.236;5.712;2023-04-15T02:37:37;5.00;99.90
18260;DHT22;9256;52.236;5.712;2023-04-15T02:40:08;4.90;99.90
18260;DHT22;9256;52.236;5.712;2023-04-15T02:42:37;4.90;99.90
18260;DHT22;9256;52.236;5.712;2023-04-15T02:45:05;4.80;99.90
18260;DHT22;9256;52.236;5.712;2023-04-15T02:47:32;4.90;99.90
18260;DHT22;9256;52.236;5.712;2023-04-15T02:50:02;5.00;99.90
18260;DHT22;9256;52.236;5.712;2023-04-15T02:52:30;4.90;99.90
18260;DHT22;9256;52.236;5.712;2023-04-15T02:54:57;5.00;99.90
18260;DHT22;9256;52.236;5.712;2023-04-15T02:57:27;5.00;99.90
18260;DHT22;9256;52.236;5.712;2023-04-15T02:59:54;5.00;99.90
18260;DHT22;9256;52.236;5.712;2023-04-15T03:02:21;5.00;99.90
18260;DHT22;9256;52.236;5.712;2023-04-15T03:04:48;5.00;99.90
18260;DHT22;9256;52.236;5.712;2023-04-15T03:07:16;5.00;99.90
18260;DHT22;9256;52.236;5.712;2023-04-15T03:09:45;5.00;99.90
18260;DHT22;9256;52.236;5.712;2023-04-15T03:12:12;5.00;99.90
18260;DHT22;9256;52.236;5.712;2023-04-15T03:14:39;5.00;99.90
18260;DHT22;9256;52.236;5.712;2023-04-15T03:17:06;5.00;99.90
18260;DHT22;9256;52.236;5.712;2023-04-15T03:19:33;5.10;99.90
18260;DHT22;9256;52.236;5.712;2023-04-15T03:22:00;5.00;99.90
18260;DHT22;9256;52.236;5.712;2023-04-15T03:24:27;5.10;99.90
18260;DHT22;9256;52.236;5.712;2023-04-15T03:26:56;5.00;99.90
18260;DHT22;9256;52.236;5.712;2023-04-15T03:29:23;5.00;99.90
18260;DHT22;9256;52.236;5.712;2023-04-15T03:31:51;4.90;99.90
18260;DHT22;9256;52.236;5.712;2023-04-15T03:34:18;4.90;99.90
18260;DHT22;9256;52.236;5.712;2023-04-15T03:36:45;4.80;99.90
18260;DHT22;9256;52.236;5.712;2023-04-15T03:39:12;4.80;99.90
18260;DHT22;9256;52.236;5.712;2023-04-15T03:41:39;4.70;99.90
18260;DHT22;9256;52.236;5.712;2023-04-15T03:44:07;4.80;99.90
18260;DHT22;9256;52.236;5.712;2023-04-15T03:46:34;4.80;99.90
18260;DHT22;9256;52.236;5.712;2023-04-15T03:49:03;4.90;99.90
18260;DHT22;9256;52.236;5.712;2023-04-15T03:51:30;4.80;99.90
18260;DHT22;9256;52.236;5.712;2023-04-15T03:53:57;4.80;99.90
18260;DHT22;9256;52.236;5.712;2023-04-15T03:56:24;4.90;99.90
18260;DHT22;9256;52.236;5.712;2023-04-15T03:58:51;4.90;99.90
18260;DHT22;9256;52.236;5.712;2023-04-15T04:01:19;5.00;99.90
18260;DHT22;9256;52.236;5.712;2023-04-15T04:03:46;4.90;99.90
18260;DHT22;9256;52.236;5.712;2023-04-15T04:06:14;5.00;99.90
18260;DHT22;9256;52.236;5.712;2023-04-15T04:08:41;5.00;99.90
18260;DHT22;9256;52.236;5.712;2023-04-15T04:11:08;5.00;99.90
18260;DHT22;9256;52.236;5.712;2023-04-15T04:13:35;5.00;99.90
18260;DHT22;9256;52.236;5.712;2023-04-15T04:16:04;5.10;99.90
18260;DHT22;9256;52.236;5.712;2023-04-15T04:18:32;5.10;99.90
18260;DHT22;9256;52.236;5.712;2023-04-15T04:20:59;5.10;99.90
18260;DHT22;9256;52.236;5.712;2023-04-15T04:23:26;5.00;99.90
18260;DHT22;9256;52.236;5.712;2023-04-15T04:25:53;5.00;99.90
18260;DHT22;9256;52.236;5.712;2023-04-15T04:28:20;4.90;99.90
18260;DHT22;9256;52.236;5.712;2023-04-15T04:30:47;4.90;99.90
18260;DHT22;9256;52.236;5.712;2023-04-15T04:33:14;4.80;99.90
18260;DHT22;9256;52.236;5.712;2023-04-15T04:35:43;4.90;99.90
18260;DHT22;9256;52.236;5.712;2023-04-15T04:38:09;4.90;99.90
18260;DHT22;9256;52.236;5.712;2023-04-15T04:40:36;4.90;99.90
18260;DHT22;9256;52.236;5.712;2023-04-15T04:43:03;4.90;99.90
18260;DHT22;9256;52.236;5.712;2023-04-15T04:45:30;4.90;99.90
18260;DHT22;9256;52.236;5.712;2023-04-15T04:47:57;4.80;99.90
18260;DHT22;9256;52.236;5.712;2023-04-15T04:50:24;4.90;99.90
18260;DHT22;9256;52.236;5.712;2023-04-15T04:52:53;4.90;99.90
18260;DHT22;9256;52.236;5.712;2023-04-15T04:55:21;5.00;99.90
18260;DHT22;9256;52.236;5.712;2023-04-15T04:57:48;5.00;99.90
18260;DHT22;9256;52.236;5.712;2023-04-15T05:00:15;5.00;99.90
18260;DHT22;9256;52.236;5.712;2023-04-15T05:02:42;5.00;99.90
18260;DHT22;9256;52.236;5.712;2023-04-15T05:05:09;5.10;99.90
18260;DHT22;9256;52.236;5.712;2023-04-15T05:07:37;5.00;99.90
18260;DHT22;9256;52.236;5.712;2023-04-15T05:10:08;5.10;99.90
18260;DHT22;9256;52.236;5.712;2023-04-15T05:12:35;5.00;99.90
18260;DHT22;9256;52.236;5.712;2023-04-15T05:15:03;5.20;99.90
18260;DHT22;9256;52.236;5.712;2023-04-15T05:17:30;5.20;99.90
18260;DHT22;9256;52.236;5.712;2023-04-15T05:19:59;5.20;99.90
18260;DHT22;9256;52.236;5.712;2023-04-15T05:22:29;5.20;99.90
18260;DHT22;9256;52.236;5.712;2023-04-15T05:24:56;5.30;99.90
18260;DHT22;9256;52.236;5.712;2023-04-15T05:27:24;5.30;99.90
18260;DHT22;9256;52.236;5.712;2023-04-15T05:29:51;5.30;99.90
18260;DHT22;9256;52.236;5.712;2023-04-15T05:32:18;5.40;99.90
18260;DHT22;9256;52.236;5.712;2023-04-15T05:34:45;5.40;99.90
18260;DHT22;9256;52.236;5.712;2023-04-15T05:37:12;5.40;99.90
18260;DHT22;9256;52.236;5.712;2023-04-15T05:39:39;5.40;99.90
18260;DHT22;9256;52.236;5.712;2023-04-15T05:42:08;5.40;99.90
18260;DHT22;9256;52.236;5.712;2023-04-15T05:44:37;5.50;99.90
18260;DHT22;9256;52.236;5.712;2023-04-15T05:47:04;5.50;99.90
18260;DHT22;9256;52.236;5.712;2023-04-15T05:49:32;5.60;99.90
18260;DHT22;9256;52.236;5.712;2023-04-15T05:51:59;5.70;99.90
18260;DHT22;9256;52.236;5.712;2023-04-15T05:54:26;5.70;99.90
18260;DHT22;9256;52.236;5.712;2023-04-15T05:56:53;5.80;99.90
18260;DHT22;9256;52.236;5.712;2023-04-15T05:59:20;5.80;99.90
18260;DHT22;9256;52.236;5.712;2023-04-15T06:01:49;5.90;99.90
18260;DHT22;9256;52.236;5.712;2023-04-15T06:04:16;6.10;99.90
18260;DHT22;9256;52.236;5.712;2023-04-15T06:06:43;6.10;99.90
18260;DHT22;9256;52.236;5.712;2023-04-15T06:09:10;6.20;99.90
18260;DHT22;9256;52.236;5.712;2023-04-15T06:11:37;6.30;99.90
18260;DHT22;9256;52.236;5.712;2023-04-15T06:14:05;6.40;99.90
18260;DHT22;9256;52.236;5.712;2023-04-15T06:16:32;6.50;99.90
18260;DHT22;9256;52.236;5.712;2023-04-15T06:19:02;6.70;99.90
18260;DHT22;9256;52.236;5.712;2023-04-15T06:21:29;6.80;99.90
18260;DHT22;9256;52.236;5.712;2023-04-15T06:23:57;6.90;99.90
18260;DHT22;9256;52.236;5.712;2023-04-15T06:26:24;7.10;99.90
18260;DHT22;9256;52.236;5.712;2023-04-15T06:28:51;7.30;99.90
18260;DHT22;9256;52.236;5.712;2023-04-15T06:31:18;7.40;99.90
18260;DHT22;9256;52.236;5.712;2023-04-15T06:33:45;7.50;99.90
18260;DHT22;9256;52.236;5.712;2023-04-15T06:36:13;7.60;99.90
18260;DHT22;9256;52.236;5.712;2023-04-15T06:38:40;7.70;99.90
18260;DHT22;9256;52.236;5.712;2023-04-15T06:41:07;7.70;99.90
18260;DHT22;9256;52.236;5.712;2023-04-15T06:43:34;7.80;99.90
18260;DHT22;9256;52.236;5.712;2023-04-15T06:46:01;7.80;99.90
18260;DHT22;9256;52.236;5.712;2023-04-15T06:48:28;7.80;99.90
18260;DHT22;9256;52.236;5.712;2023-04-15T06:50:55;7.90;99.90
18260;DHT22;9256;52.236;5.712;2023-04-15T06:53:24;8.00;99.90
18260;DHT22;9256;52.236;5.712;2023-04-15T06:55:52;8.00;99.90
18260;DHT22;9256;52.236;5.712;2023-04-15T06:58:19;8.00;99.90
18260;DHT22;9256;52.236;5.712;2023-04-15T07:00:46;8.10;99.90
18260;DHT22;9256;52.236;5.712;2023-04-15T07:03:13;8.20;99.90
18260;DHT22;9256;52.236;5.712;2023-04-15T07:05:40;8.30;99.90
18260;DHT22;9256;52.236;5.712;2023-04-15T07:08:07;8.40;99.90
18260;DHT22;9256;52.236;5.712;2023-04-15T07:10:36;8.40;99.90
18260;DHT22;9256;52.236;5.712;2023-04-15T07:13:03;8.50;99.90
18260;DHT22;9256;52.236;5.712;2023-04-15T07:15:31;8.50;99.90
18260;DHT22;9256;52.236;5.712;2023-04-15T07:17:58;8.50;99.90
18260;DHT22;9256;52.236;5.712;2023-04-15T07:20:25;8.40;99.90
18260;DHT22;9256;52.236;5.712;2023-04-15T07:22:52;8.30;99.90
18260;DHT22;9256;52.236;5.712;2023-04-15T07:25:19;8.30;99.90
18260;DHT22;9256;52.236;5.712;2023-04-15T07:27:48;8.40;99.90
18260;DHT22;9256;52.236;5.712;2023-04-15T07:30:15;8.30;99.90
18260;DHT22;9256;52.236;5.712;2023-04-15T07:32:42;8.20;99.90
18260;DHT22;9256;52.236;5.712;2023-04-15T07:35:09;8.30;99.90
18260;DHT22;9256;52.236;5.712;2023-04-15T07:37:36;8.30;99.90
18260;DHT22;9256;52.236;5.712;2023-04-15T07:40:03;8.30;99.90
18260;DHT22;9256;52.236;5.712;2023-04-15T07:42:32;8.40;99.90
18260;DHT22;9256;52.236;5.712;2023-04-15T07:45:00;8.30;99.90
18260;DHT22;9256;52.236;5.712;2023-04-15T07:47:27;8.40;99.90
18260;DHT22;9256;52.236;5.712;2023-04-15T07:49:54;8.30;99.90
18260;DHT22;9256;52.236;5.712;2023-04-15T07:52:21;8.30;99.90
18260;DHT22;9256;52.236;5.712;2023-04-15T07:54:48;8.40;99.90
18260;DHT22;9256;52.236;5.712;2023-04-15T07:57:15;8.40;99.90
18260;DHT22;9256;52.236;5.712;2023-04-15T07:59:42;8.40;99.90
18260;DHT22;9256;52.236;5.712;2023-04-15T08:02:11;8.50;99.90
18260;DHT22;9256;52.236;5.712;2023-04-15T08:04:38;8.50;99.90
18260;DHT22;9256;52.236;5.712;2023-04-15T08:07:05;8.50;99.90
18260;DHT22;9256;52.236;5.712;2023-04-15T08:09:32;8.60;99.90
18260;DHT22;9256;52.236;5.712;2023-04-15T08:11:59;8.60;99.90
18260;DHT22;9256;52.236;5.712;2023-04-15T08:14:27;8.60;99.90
18260;DHT22;9256;52.236;5.712;2023-04-15T08:16:57;8.70;99.90
18260;DHT22;9256;52.236;5.712;2023-04-15T08:19:26;8.70;99.90
18260;DHT22;9256;52.236;5.712;2023-04-15T08:21:53;8.80;99.90
18260;DHT22;9256;52.236;5.712;2023-04-15T08:24:20;8.90;99.90
18260;DHT22;9256;52.236;5.712;2023-04-15T08:26:47;8.90;99.90
18260;DHT22;9256;52.236;5.712;2023-04-15T08:29:14;9.00;99.90
18260;DHT22;9256;52.236;5.712;2023-04-15T08:31:41;9.10;99.90
18260;DHT22;9256;52.236;5.712;2023-04-15T08:34:08;9.20;99.90
18260;DHT22;9256;52.236;5.712;2023-04-15T08:36:36;9.30;99.90
18260;DHT22;9256;52.236;5.712;2023-04-15T08:39:03;9.40;99.90
18260;DHT22;9256;52.236;5.712;2023-04-15T08:41:38;9.60;99.90
18260;DHT22;9256;52.236;5.712;2023-04-15T08:44:06;9.80;99.90
18260;DHT22;9256;52.236;5.712;2023-04-15T08:46:33;9.90;99.90
18260;DHT22;9256;52.236;5.712;2023-04-15T08:49:02;9.90;99.90
18260;DHT22;9256;52.236;5.712;2023-04-15T08:51:31;10.00;99.90
18260;DHT22;9256;52.236;5.712;2023-04-15T08:53:59;10.20;99.90
18260;DHT22;9256;52.236;5.712;2023-04-15T08:56:30;10.40;99.90
18260;DHT22;9256;52.236;5.712;2023-04-15T08:58:58;10.30;99.90
18260;DHT22;9256;52.236;5.712;2023-04-15T09:01:25;10.30;99.90
18260;DHT22;9256;52.236;5.712;2023-04-15T09:03:53;10.10;99.90
18260;DHT22;9256;52.236;5.712;2023-04-15T09:06:20;10.10;99.90
18260;DHT22;9256;52.236;5.712;2023-04-15T09:08:49;10.20;99.90
18260;DHT22;9256;52.236;5.712;2023-04-15T09:11:20;10.30;99.90
18260;DHT22;9256;52.236;5.712;2023-04-15T09:13:48;10.30;99.90
18260;DHT22;9256;52.236;5.712;2023-04-15T09:16:15;10.40;99.90
18260;DHT22;9256;52.236;5.712;2023-04-15T09:18:43;10.60;99.90
18260;DHT22;9256;52.236;5.712;2023-04-15T09:21:11;10.60;99.90
18260;DHT22;9256;52.236;5.712;2023-04-15T09:23:40;10.70;99.90
18260;DHT22;9256;52.236;5.712;2023-04-15T09:26:09;10.80;99.90
18260;DHT22;9256;52.236;5.712;2023-04-15T09:28:41;10.60;99.90
18260;DHT22;9256;52.236;5.712;2023-04-15T09:31:08;10.70;99.90
18260;DHT22;9256;52.236;5.712;2023-04-15T09:33:53;10.60;99.90
18260;DHT22;9256;52.236;5.712;2023-04-15T09:36:20;10.60;99.90
18260;DHT22;9256;52.236;5.712;2023-04-15T09:38:54;10.70;99.90
18260;DHT22;9256;52.236;5.712;2023-04-15T09:41:22;10.90;99.90
18260;DHT22;9256;52.236;5.712;2023-04-15T09:43:50;11.00;99.90
18260;DHT22;9256;52.236;5.712;2023-04-15T09:46:17;11.10;99.90
18260;DHT22;9256;52.236;5.712;2023-04-15T09:48:44;11.50;99.90
18260;DHT22;9256;52.236;5.712;2023-04-15T09:51:11;11.30;99.90
18260;DHT22;9256;52.236;5.712;2023-04-15T09:53:38;11.40;99.90
18260;DHT22;9256;52.236;5.712;2023-04-15T09:56:06;11.50;99.90
18260;DHT22;9256;52.236;5.712;2023-04-15T09:58:35;11.60;99.90
18260;DHT22;9256;52.236;5.712;2023-04-15T10:01:05;11.50;99.90
18260;DHT22;9256;52.236;5.712;2023-04-15T10:03:33;11.90;99.90
18260;DHT22;9256;52.236;5.712;2023-04-15T10:06:01;12.20;99.90
18260;DHT22;9256;52.236;5.712;2023-04-15T10:08:32;12.10;99.90
18260;DHT22;9256;52.236;5.712;2023-04-15T10:11:01;12.30;99.90
18260;DHT22;9256;52.236;5.712;2023-04-15T10:13:30;12.50;99.90
18260;DHT22;9256;52.236;5.712;2023-04-15T10:16:06;12.50;99.90
18260;DHT22;9256;52.236;5.712;2023-04-15T10:18:35;12.50;99.90
18260;DHT22;9256;52.236;5.712;2023-04-15T10:21:04;12.70;99.90
18260;DHT22;9256;52.236;5.712;2023-04-15T10:23:31;12.70;99.90
18260;DHT22;9256;52.236;5.712;2023-04-15T10:25:59;12.50;99.90
18260;DHT22;9256;52.236;5.712;2023-04-15T10:28:27;12.30;99.90
18260;DHT22;9256;52.236;5.712;2023-04-15T10:30:54;12.20;99.90
18260;DHT22;9256;52.236;5.712;2023-04-15T10:33:24;12.00;99.90
18260;DHT22;9256;52.236;5.712;2023-04-15T10:35:54;11.90;99.90
18260;DHT22;9256;52.236;5.712;2023-04-15T10:38:37;12.00;99.90
18260;DHT22;9256;52.236;5.712;2023-04-15T10:41:23;12.60;99.90
18260;DHT22;9256;52.236;5.712;2023-04-15T10:43:52;12.90;99.90
18260;DHT22;9256;52.236;5.712;2023-04-15T10:46:24;13.00;99.90
18260;DHT22;9256;52.236;5.712;2023-04-15T10:49:07;13.10;99.90
18260;DHT22;9256;52.236;5.712;2023-04-15T10:51:37;13.00;99.90
18260;DHT22;9256;52.236;5.712;2023-04-15T10:54:11;12.90;99.90
18260;DHT22;9256;52.236;5.712;2023-04-15T10:56:41;12.60;99.90
18260;DHT22;9256;52.236;5.712;2023-04-15T10:59:08;12.70;99.90
18260;DHT22;9256;52.236;5.712;2023-04-15T11:01:53;12.90;99.90
18260;DHT22;9256;52.236;5.712;2023-04-15T11:04:54;13.00;99.90
18260;DHT22;9256;52.236;5.712;2023-04-15T11:07:38;13.10;99.90
18260;DHT22;9256;52.236;5.712;2023-04-15T11:10:49;13.40;99.90
18260;DHT22;9256;52.236;5.712;2023-04-15T11:13:19;13.30;99.90
18260;DHT22;9256;52.236;5.712;2023-04-15T11:15:47;13.20;99.90
18260;DHT22;9256;52.236;5.712;2023-04-15T11:18:16;13.10;99.90
18260;DHT22;9256;52.236;5.712;2023-04-15T11:20:45;13.00;99.90
18260;DHT22;9256;52.236;5.712;2023-04-15T11:23:14;12.70;99.90
18260;DHT22;9256;52.236;5.712;2023-04-15T11:25:41;12.70;99.90
18260;DHT22;9256;52.236;5.712;2023-04-15T11:28:09;12.50;99.90
18260;DHT22;9256;52.236;5.712;2023-04-15T11:30:37;12.60;99.90
18260;DHT22;9256;52.236;5.712;2023-04-15T11:33:06;12.70;99.90
18260;DHT22;9256;52.236;5.712;2023-04-15T11:35:34;12.80;99.90
18260;DHT22;9256;52.236;5.712;2023-04-15T11:38:04;12.80;99.90
18260;DHT22;9256;52.236;5.712;2023-04-15T11:40:31;12.80;99.90
18260;DHT22;9256;52.236;5.712;2023-04-15T11:43:07;12.70;99.90
18260;DHT22;9256;52.236;5.712;2023-04-15T11:45:34;13.00;99.90
18260;DHT22;9256;52.236;5.712;2023-04-15T11:48:06;13.10;99.90
18260;DHT22;9256;52.236;5.712;2023-04-15T11:50:33;13.20;99.90
18260;DHT22;9256;52.236;5.712;2023-04-15T11:53:03;13.20;99.90
18260;DHT22;9256;52.236;5.712;2023-04-15T11:55:30;12.90;99.90
18260;DHT22;9256;52.236;5.712;2023-04-15T11:58:11;13.00;99.90
18260;DHT22;9256;52.236;5.712;2023-04-15T12:00:39;13.00;99.90
18260;DHT22;9256;52.236;5.712;2023-04-15T12:03:13;13.00;99.90
18260;DHT22;9256;52.236;5.712;2023-04-15T12:06:03;13.10;99.90
18260;DHT22;9256;52.236;5.712;2023-04-15T12:08:54;13.40;99.90
18260;DHT22;9256;52.236;5.712;2023-04-15T12:11:35;13.90;99.90
18260;DHT22;9256;52.236;5.712;2023-04-15T12:14:07;13.70;99.90
18260;DHT22;9256;52.236;5.712;2023-04-15T12:16:36;13.30;99.90
18260;DHT22;9256;52.236;5.712;2023-04-15T12:19:05;13.20;99.90
18260;DHT22;9256;52.236;5.712;2023-04-15T12:21:34;13.30;99.90
18260;DHT22;9256;52.236;5.712;2023-04-15T12:24:04;13.00;99.90
18260;DHT22;9256;52.236;5.712;2023-04-15T12:26:34;12.80;99.90
18260;DHT22;9256;52.236;5.712;2023-04-15T12:29:02;12.90;99.90
18260;DHT22;9256;52.236;5.712;2023-04-15T12:31:30;13.00;99.90
18260;DHT22;9256;52.236;5.712;2023-04-15T12:33:57;12.80;99.90
18260;DHT22;9256;52.236;5.712;2023-04-15T12:36:25;12.70;99.90
18260;DHT22;9256;52.236;5.712;2023-04-15T12:38:53;12.80;99.90
18260;DHT22;9256;52.236;5.712;2023-04-15T12:41:21;12.70;99.90
18260;DHT22;9256;52.236;5.712;2023-04-15T12:43:49;12.90;99.90
18260;DHT22;9256;52.236;5.712;2023-04-15T12:46:16;12.80;99.90
18260;DHT22;9256;52.236;5.712;2023-04-15T12:48:43;12.90;99.90
18260;DHT22;9256;52.236;5.712;2023-04-15T12:51:10;13.20;99.90
18260;DHT22;9256;52.236;5.712;2023-04-15T12:53:37;13.00;99.90
18260;DHT22;9256;52.236;5.712;2023-04-15T12:56:05;12.70;99.90
18260;DHT22;9256;52.236;5.712;2023-04-15T12:58:33;12.60;99.90
18260;DHT22;9256;52.236;5.712;2023-04-15T13:01:00;12.80;99.90
18260;DHT22;9256;52.236;5.712;2023-04-15T13:03:28;12.70;99.90
18260;DHT22;9256;52.236;5.712;2023-04-15T13:05:55;12.30;99.90
18260;DHT22;9256;52.236;5.712;2023-04-15T13:08:22;12.30;99.90
18260;DHT22;9256;52.236;5.712;2023-04-15T13:10:49;12.00;99.90
18260;DHT22;9256;52.236;5.712;2023-04-15T13:13:16;12.30;99.90
18260;DHT22;9256;52.236;5.712;2023-04-15T13:15:44;12.20;99.90
18260;DHT22;9256;52.236;5.712;2023-04-15T13:18:11;12.10;99.90
18260;DHT22;9256;52.236;5.712;2023-04-15T13:20:38;11.80;99.90
18260;DHT22;9256;52.236;5.712;2023-04-15T13:23:06;11.70;99.90
18260;DHT22;9256;52.236;5.712;2023-04-15T13:25:33;11.70;99.90
18260;DHT22;9256;52.236;5.712;2023-04-15T13:28:00;11.40;99.90
18260;DHT22;9256;52.236;5.712;2023-04-15T13:30:26;11.30;99.90
18260;DHT22;9256;52.236;5.712;2023-04-15T13:32:55;11.30;99.90
18260;DHT22;9256;52.236;5.712;2023-04-15T13:35:22;11.20;99.90
18260;DHT22;9256;52.236;5.712;2023-04-15T13:37:49;11.30;99.90
18260;DHT22;9256;52.236;5.712;2023-04-15T13:40:16;10.80;99.90
18260;DHT22;9256;52.236;5.712;2023-04-15T13:42:43;10.90;99.90
18260;DHT22;9256;52.236;5.712;2023-04-15T13:45:10;11.00;99.90
18260;DHT22;9256;52.236;5.712;2023-04-15T13:47:37;11.30;99.90
18260;DHT22;9256;52.236;5.712;2023-04-15T13:50:06;11.30;99.90
18260;DHT22;9256;52.236;5.712;2023-04-15T13:52:33;11.20;99.90
18260;DHT22;9256;52.236;5.712;2023-04-15T13:55:01;11.20;99.90
18260;DHT22;9256;52.236;5.712;2023-04-15T13:57:28;11.20;99.90
18260;DHT22;9256;52.236;5.712;2023-04-15T13:59:55;11.20;99.90
18260;DHT22;9256;52.236;5.712;2023-04-15T14:02:21;11.00;99.90
18260;DHT22;9256;52.236;5.712;2023-04-15T14:04:51;10.90;99.90
18260;DHT22;9256;52.236;5.712;2023-04-15T14:07:19;10.80;99.90
18260;DHT22;9256;52.236;5.712;2023-04-15T14:09:46;10.80;99.90
18260;DHT22;9256;52.236;5.712;2023-04-15T14:12:13;10.90;99.90
18260;DHT22;9256;52.236;5.712;2023-04-15T14:14:41;10.80;99.90
18260;DHT22;9256;52.236;5.712;2023-04-15T14:17:08;10.80;99.90
18260;DHT22;9256;52.236;5.712;2023-04-15T14:19:34;10.70;99.90
18260;DHT22;9256;52.236;5.712;2023-04-15T14:22:01;10.80;99.90
18260;DHT22;9256;52.236;5.712;2023-04-15T14:24:30;10.80;99.90
18260;DHT22;9256;52.236;5.712;2023-04-15T14:26:57;10.90;99.90
18260;DHT22;9256;52.236;5.712;2023-04-15T14:29:24;10.80;99.90
18260;DHT22;9256;52.236;5.712;2023-04-15T14:31:51;10.90;99.90
18260;DHT22;9256;52.236;5.712;2023-04-15T14:34:20;10.90;99.90
18260;DHT22;9256;52.236;5.712;2023-04-15T14:36:49;10.80;99.90
18260;DHT22;9256;52.236;5.712;2023-04-15T14:39:16;10.70;99.90
18260;DHT22;9256;52.236;5.712;2023-04-15T14:41:45;10.60;99.90
18260;DHT22;9256;52.236;5.712;2023-04-15T14:44:12;10.60;99.90
18260;DHT22;9256;52.236;5.712;2023-04-15T14:46:39;10.50;99.90
18260;DHT22;9256;52.236;5.712;2023-04-15T14:49:06;10.50;99.90
18260;DHT22;9256;52.236;5.712;2023-04-15T14:51:33;10.40;99.90
18260;DHT22;9256;52.236;5.712;2023-04-15T14:54:00;10.30;99.90
18260;DHT22;9256;52.236;5.712;2023-04-15T14:56:27;10.20;99.90
18260;DHT22;9256;52.236;5.712;2023-04-15T14:58:55;10.40;99.90
18260;DHT22;9256;52.236;5.712;2023-04-15T15:01:22;10.50;99.90
18260;DHT22;9256;52.236;5.712;2023-04-15T15:03:49;10.50;99.90
18260;DHT22;9256;52.236;5.712;2023-04-15T15:06:16;10.60;99.90
18260;DHT22;9256;52.236;5.712;2023-04-15T15:08:43;10.70;99.90
18260;DHT22;9256;52.236;5.712;2023-04-15T15:11:10;10.40;99.90
18260;DHT22;9256;52.236;5.712;2023-04-15T15:13:37;10.20;99.90
18260;DHT22;9256;52.236;5.712;2023-04-15T15:16:06;10.20;99.90
18260;DHT22;9256;52.236;5.712;2023-04-15T15:18:34;10.10;99.90
18260;DHT22;9256;52.236;5.712;2023-04-15T15:21:01;10.20;99.90
18260;DHT22;9256;52.236;5.712;2023-04-15T15:23:28;10.10;99.90
18260;DHT22;9256;52.236;5.712;2023-04-15T15:25:56;10.00;99.90
18260;DHT22;9256;52.236;5.712;2023-04-15T15:28:23;10.00;99.90
18260;DHT22;9256;52.236;5.712;2023-04-15T15:30:50;10.10;99.90
18260;DHT22;9256;52.236;5.712;2023-04-15T15:33:19;10.00;99.90
18260;DHT22;9256;52.236;5.712;2023-04-15T15:35:46;9.90;99.90
18260;DHT22;9256;52.236;5.712;2023-04-15T15:38:13;9.90;99.90
18260;DHT22;9256;52.236;5.712;2023-04-15T15:40:40;9.90;99.90
18260;DHT22;9256;52.236;5.712;2023-04-15T15:43:07;9.80;99.90
18260;DHT22;9256;52.236;5.712;2023-04-15T15:45:34;9.80;99.90
18260;DHT22;9256;52.236;5.712;2023-04-15T15:48:01;9.60;99.90
18260;DHT22;9256;52.236;5.712;2023-04-15T15:50:30;9.50;99.90
18260;DHT22;9256;52.236;5.712;2023-04-15T15:52:57;9.50;99.90
18260;DHT22;9256;52.236;5.712;2023-04-15T15:55:24;9.40;99.90
18260;DHT22;9256;52.236;5.712;2023-04-15T15:57:52;9.30;99.90
18260;DHT22;9256;52.236;5.712;2023-04-15T16:00:19;9.30;99.90
18260;DHT22;9256;52.236;5.712;2023-04-15T16:02:47;9.30;99.90